NY/NJ Local METAR Reports

 

KNYC - NYC/Central Park, NY, USA
Distance from Hoboken: NE 4mi, 7km
Updated: 02/16/2020 10:51pm
Overcast
Overcast
 Wind from WNW
Wind: WNW 6 mph , 9 km/h
Temperature: 43°F , 6°C
Wind Chill: 39°F , 4°C
Dew Point: 25°F , -4°C
Humidity: 49%
Barometer: 30.13 inHg , 1020.3 hPa
Clouds: Overcast
Visibility: 10 miles , 16 km
Cloud details: Overcast 7000 ft
2020/02/17 03:51 KNYC 170351Z AUTO 30005KT 10SM OVC070 06/M04 A3013 RMK AO2 SLP194 T00611039
KEWR - Newark, NJ, USA
Distance from Hoboken: WSW 8mi, 13km
Updated: 02/16/2020 10:51pm
Overcast
Overcast
 Wind from calm
Wind: Calm
Temperature: 39°F , 4°C
Dew Point: 28°F , -2°C
Humidity: 65%
Barometer: 30.11 inHg , 1019.6 hPa
Clouds: Overcast
Visibility: 10 miles , 16 km
Cloud details: Overcast 7000 ft
2020/02/17 03:51 KEWR 170351Z 00000KT 10SM OVC070 04/M02 A3011 RMK AO2 SLP196 T00441017
 
KLGA - NYC/La Guardia, NY, USA
Distance from Hoboken: ENE 8mi, 13km
Updated: 02/16/2020 10:51pm
Overcast
Overcast
 Wind from calm
Wind: Calm
Temperature: 39°F , 4°C
Dew Point: 28°F , -2°C
Humidity: 65%
Barometer: 30.11 inHg , 1019.6 hPa
Clouds: Overcast
Visibility: 10 miles , 16 km
Cloud details: Mostly cloudy 7000 ft
Overcast 14000 ft
2020/02/17 03:51 KLGA 170351Z 00000KT 10SM BKN070 OVC140 04/M02 A3011 RMK AO2 SLP195 T00441022
KTEB - Teterboro, NJ, USA
Distance from Hoboken: N 9mi, 14km
Updated: 02/16/2020 10:51pm
Overcast
Overcast
 Wind from calm
Wind: Calm
Temperature: 37°F , 3°C
Dew Point: 27°F , -3°C
Humidity: 65%
Barometer: 30.10 inHg , 1019.3 hPa
Clouds: Overcast
Visibility: 10 miles , 16 km
Cloud details: Overcast 7000 ft
2020/02/17 03:51 KTEB 170351Z 00000KT 10SM OVC070 03/M03 A3010 RMK AO2 SLP193 T00281028
 
KJFK - NYC/Jfk Arpt, NY, USA
Distance from Hoboken: ESE 16mi, 25km
Updated: 02/16/2020 10:51pm
Overcast
Overcast
 Wind from calm
Wind: Calm
Temperature: 37°F , 3°C
Dew Point: 30°F , -1°C
Humidity: 75%
Barometer: 30.12 inHg , 1020 hPa
Clouds: Overcast
Visibility: 10 miles , 16 km
Cloud details: Overcast 7000 ft
2020/02/17 03:51 KJFK 170351Z 00000KT 10SM OVC070 03/M01 A3012 RMK AO2 SLP199 T00281006
KCDW - Caldwell, NJ, USA
Distance from Hoboken: NW 16mi, 26km
Updated: 02/16/2020 10:53pm
Overcast
Overcast
 Wind from calm
Wind: Calm
Temperature: 39°F , 4°C
Dew Point: 27°F , -3°C
Humidity: 61%
Barometer: 30.11 inHg , 1019.6 hPa
Clouds: Overcast
Visibility: 10 miles , 16 km
Cloud details: Overcast 7000 ft
2020/02/17 03:53 KCDW 170353Z 00000KT 10SM OVC070 04/M03 A3011 RMK AO2 SLP204 T00391028
 
KMMU - Morristown Muni, NJ, USA
Distance from Hoboken: W 20mi, 33km
Updated: 02/16/2020 11:15pm
Overcast
Overcast
 Wind from calm
Wind: Calm
Temperature: 34°F , 1°C
Dew Point: 28°F , -2°C
Humidity: 81%
Barometer: 30.10 inHg , 1019.3 hPa
Clouds: Overcast
Visibility: 10 miles , 16 km
Cloud details: Overcast 6500 ft
2020/02/17 04:15 KMMU 170415Z AUTO 00000KT 10SM OVC065 01/M02 A3010 RMK AO2
KHPN - White Plains, NY, USA
Distance from Hoboken: NE 28mi, 46km
Updated: 02/16/2020 10:56pm
Mostly cloudy
Mostly cloudy
 Wind from WSW
Wind: WSW 5 mph , 7 km/h
Temperature: 39°F , 4°C
Wind Chill: 35°F , 2°C
Dew Point: 25°F , -4°C
Humidity: 56%
Barometer: 30.08 inHg , 1018.6 hPa
Clouds: Mostly cloudy
Visibility: 10 miles , 16 km
Cloud details: Mostly cloudy 6000 ft
2020/02/17 03:56 KHPN 170356Z 24004KT 10SM BKN060 04/M04 A3008 RMK AO2 SLP194 T00391044
 
KFRG - Farmingdale, NY, USA
Distance from Hoboken: E 32mi, 52km
Updated: 02/16/2020 10:53pm
Overcast
Overcast
 Wind from calm
Wind: Calm
Temperature: 36°F , 2°C
Dew Point: 28°F , -2°C
Humidity: 75%
Barometer: 30.11 inHg , 1019.6 hPa
Clouds: Overcast
Visibility: 10 miles , 16 km
Cloud details: Mostly cloudy 7500 ft
Overcast 10000 ft
2020/02/17 03:53 KFRG 170353Z AUTO 00000KT 10SM BKN075 OVC100 02/M02 A3011 RMK AO2 SLP197 T00221022
KSMQ - Somerville, NJ, USA
Distance from Hoboken: WSW 34mi, 55km
Updated: 02/16/2020 10:53pm
Overcast
Overcast
 Wind from calm
Wind: Calm
Temperature: 34°F , 1°C
Dew Point: 27°F , -3°C
Humidity: 75%
Barometer: 30.10 inHg , 1019.3 hPa
Clouds: Overcast
Visibility: 10 miles , 16 km
Cloud details: Overcast 7000 ft
2020/02/17 03:53 KSMQ 170353Z AUTO 00000KT 10SM OVC070 01/M03 A3010 RMK AO2 SLP195 T00061028 $
 
KBLM - Belmar/Farmdale, NJ, USA
Distance from Hoboken: S 40mi, 64km
Updated: 02/16/2020 10:56pm
Overcast
Overcast
 Wind from W
Wind: W 5 mph , 7 km/h
Temperature: 36°F , 2°C
Wind Chill: 32°F , 0°C
Dew Point: 27°F , -3°C
Humidity: 70%
Barometer: 30.13 inHg , 1020.3 hPa
Clouds: Overcast
Visibility: 10 miles , 16 km
Cloud details: Overcast 8000 ft
2020/02/17 03:56 KBLM 170356Z AUTO 27004KT 10SM OVC080 02/M03 A3013 RMK AO2 SLP202 T00171033 FZRANO
K12N - Andover, NJ, USA
Distance from Hoboken: WNW 41mi, 67km
Updated: 02/16/2020 10:54pm

 Wind from calm
Wind: Calm
Temperature: 34°F , 1°C
Dew Point: 27°F , -3°C
Humidity: 75%
Barometer: 30.10 inHg , 1019.3 hPa
2020/02/17 03:54 K12N 170354Z AUTO 00000KT 01/M03 A3010 RMK AO1 SLP202 T00061028
 
KFWN - Sussex, NJ, USA
Distance from Hoboken: NW 45mi, 72km
Updated: 02/16/2020 10:53pm
Overcast
Overcast
 Wind from calm
Wind: Calm
Temperature: 34°F , 1°C
Dew Point: 25°F , -4°C
Humidity: 70%
Barometer: 30.09 inHg , 1019 hPa
Clouds: Overcast
Visibility: 10 miles , 16 km
Cloud details: Partly cloudy 5000 ft
Overcast 6500 ft
2020/02/17 03:53 KFWN 170353Z AUTO 00000KT 10SM SCT050 OVC065 01/M04 A3009 RMK AO2 UPE0255RAB0255E02 SLP193 P0000 T00061039
KISP - Islip, NY, USA
Distance from Hoboken: E 49mi, 79km
Updated: 02/16/2020 10:56pm
Mostly cloudy
Mostly cloudy
 Wind from calm
Wind: Calm
Temperature: 32°F , 0°C
Dew Point: 28°F , -2°C
Humidity: 87%
Barometer: 30.10 inHg , 1019.3 hPa
Clouds: Mostly cloudy
Visibility: 10 miles , 16 km
Cloud details: Mostly cloudy 7000 ft
Mostly cloudy 13000 ft
Mostly cloudy 25000 ft
2020/02/17 03:56 KISP 170356Z 00000KT 10SM BKN070 BKN130 BKN250 00/M02 A3010 RMK AO2 SLP194 T00001017